Time;durP1;ratioP1;P1;durP2;ratioP2;P2;SDS_P1;SDS_P2;PMS_P1;PMS_P2;Temp;Humidity;BMP_temperature;BMP_pressure;BME280_temperature;BME280_humidity;BME280_pressure;Samples;Min_cycle;Max_cycle;Signal;HPM_P1;HPM_P2
2023/09/11 00:00:04;;;;;;;;;;;;;;;19.28;46.61;102041.94;106990;1270;22513;-50
2023/09/11 00:02:31;;;;;;;;;;;;;;;19.27;46.86;102041.44;107052;1254;25201;-56
2023/09/11 00:04:59;;;;;;;;;;;;;;;19.26;47.20;102040.77;107146;1260;25211;-50
2023/09/11 00:07:26;;;;;;;;;;;;;;;19.25;47.38;102040.64;107030;1258;24252;-50
2023/09/11 00:09:54;;;;;;;;;;;;;;;19.24;47.50;102042.62;106982;1269;22532;-49
2023/09/11 00:12:21;;;;;;;;;;;;;;;19.24;47.69;102041.40;107090;1257;25393;-50
2023/09/11 00:14:49;;;;;;;;;;;;;;;19.22;47.84;102042.16;107044;1268;24268;-50
2023/09/11 00:17:17;;;;;;;;;;;;;;;19.21;48.15;102039.06;106985;1260;22517;-50
2023/09/11 00:19:45;;;;;;;;;;;;;;;19.19;48.31;102035.07;106944;1258;22527;-48
2023/09/11 00:22:12;;;;;;;;;;;;;;;19.17;48.57;102035.66;106864;1258;22672;-51
2023/09/11 00:24:40;;;;;;;;;;;;;;;19.17;48.94;102035.14;106761;1255;22504;-51
2023/09/11 00:27:08;;;;;;;;;;;;;;;19.17;49.05;102031.09;107210;1258;22946;-57
2023/09/11 00:29:35;;;;;;;;;;;;;;;19.17;49.25;102028.98;107151;1254;22503;-52
2023/09/11 00:32:03;;;;;;;;;;;;;;;19.17;49.47;102032.17;106834;1267;25337;-51
2023/09/11 00:34:31;;;;;;;;;;;;;;;19.16;49.68;102030.42;106989;1273;22508;-51
2023/09/11 00:36:59;;;;;;;;;;;;;;;19.14;49.79;102030.14;107196;1267;24234;-49
2023/09/11 00:39:26;;;;;;;;;;;;;;;19.16;49.82;102025.70;107031;1257;25208;-52
2023/09/11 00:41:54;;;;;;;;;;;;;;;19.17;49.95;102025.13;107073;1254;22524;-50
2023/09/11 00:44:21;;;;;;;;;;;;;;;19.20;50.10;102020.63;107110;1270;22504;-51
2023/09/11 00:46:49;;;;;;;;;;;;;;;19.23;50.35;102017.14;106833;1260;22504;-50
2023/09/11 00:49:18;;;;;;;;;;;;;;;19.28;50.32;102015.37;106842;1258;25262;-52
2023/09/11 00:51:45;;;;;;;;;;;;;;;19.33;50.32;102014.65;107006;1254;22514;-54
2023/09/11 00:54:13;;;;;;;;;;;;;;;19.39;50.38;102009.01;107152;1257;24898;-51
2023/09/11 00:56:41;;;;;;;;;;;;;;;19.44;50.51;102007.21;107032;1267;22511;-50
2023/09/11 00:59:09;;;;;;;;;;;;;;;19.50;50.54;102005.95;107042;1264;22522;-50
2023/09/11 01:01:37;;;;;;;;;;;;;;;19.54;50.50;102001.23;107026;1254;22507;-52
2023/09/11 01:04:04;;;;;;;;;;;;;;;19.58;50.56;102000.34;107122;1254;23523;-52
2023/09/11 01:06:32;;;;;;;;;;;;;;;19.62;50.50;101999.65;106890;1257;22501;-51
2023/09/11 01:09:00;;;;;;;;;;;;;;;19.66;50.60;101998.77;107000;1254;24272;-49
2023/09/11 01:11:28;;;;;;;;;;;;;;;19.71;50.65;101992.95;107103;1270;25250;-50
2023/09/11 01:13:56;;;;;;;;;;;;;;;19.75;50.69;101991.77;107128;1268;22534;-49
2023/09/11 01:16:30;;;;;;;;;;;;;;;19.76;50.63;101997.34;106863;1267;22504;-51
2023/09/11 01:19:04;;;;;;;;;;;;;;;19.75;50.73;101995.59;106762;1266;22517;-50
2023/09/11 01:21:50;;;;;;;;;;;;;;;19.74;50.91;101994.77;107004;1254;22571;-50
2023/09/11 01:24:37;;;;;;;;;;;;;;;19.73;50.99;101996.07;107048;1256;25430;-51
2023/09/11 01:27:17;;;;;;;;;;;;;;;19.71;50.92;101997.73;106954;1267;22514;-50
2023/09/11 01:29:44;;;;;;;;;;;;;;;19.69;51.03;102000.10;106935;1260;24378;-53
2023/09/11 01:32:12;;;;;;;;;;;;;;;19.66;51.07;101997.21;106936;1258;22500;-50
2023/09/11 01:34:40;;;;;;;;;;;;;;;19.63;51.34;101998.02;107039;1267;22517;-50
2023/09/11 01:37:08;;;;;;;;;;;;;;;19.62;51.39;101999.83;106792;1267;22505;-51
2023/09/11 01:39:35;;;;;;;;;;;;;;;19.62;51.14;102000.40;106697;1264;22508;-49
2023/09/11 01:42:05;;;;;;;;;;;;;;;19.60;50.91;101999.76;106970;1254;24265;-53
2023/09/11 01:44:36;;;;;;;;;;;;;;;19.59;50.60;102006.47;107040;1267;22527;-51
2023/09/11 01:47:04;;;;;;;;;;;;;;;19.59;49.91;102005.61;106953;1253;24247;-50
2023/09/11 01:49:31;;;;;;;;;;;;;;;19.61;50.39;102006.05;107074;1254;25327;-52
2023/09/11 01:51:59;;;;;;;;;;;;;;;19.64;50.54;102009.80;107033;1270;22512;-50
2023/09/11 01:54:26;;;;;;;;;;;;;;;19.68;50.03;102011.73;106905;1265;22508;-51
2023/09/11 01:56:54;;;;;;;;;;;;;;;19.71;49.56;102004.57;107063;1257;22519;-50
2023/09/11 01:59:23;;;;;;;;;;;;;;;19.75;49.03;101998.98;106930;1270;25308;-51
2023/09/11 02:01:51;;;;;;;;;;;;;;;19.78;49.15;101997.28;106801;1261;22508;-51
2023/09/11 02:04:19;;;;;;;;;;;;;;;19.81;49.13;101998.36;107122;1267;22497;-51
2023/09/11 02:06:47;;;;;;;;;;;;;;;19.84;49.07;101999.14;107106;1254;22508;-52
2023/09/11 02:09:15;;;;;;;;;;;;;;;19.86;49.20;102001.66;107034;1258;22512;-53
2023/09/11 02:11:42;;;;;;;;;;;;;;;19.89;49.37;101997.67;107038;1270;22516;-50
2023/09/11 02:14:10;;;;;;;;;;;;;;;19.91;49.34;101998.81;107055;1255;25299;-57
2023/09/11 02:16:38;;;;;;;;;;;;;;;19.93;49.38;101997.16;107114;1253;24266;-51
2023/09/11 02:19:06;;;;;;;;;;;;;;;19.95;49.53;101996.71;106930;1270;22500;-50
2023/09/11 02:21:34;;;;;;;;;;;;;;;19.99;49.53;101996.92;106800;1256;22855;-50
2023/09/11 02:24:01;;;;;;;;;;;;;;;20.02;49.31;101998.70;107064;1267;25337;-50
2023/09/11 02:26:29;;;;;;;;;;;;;;;20.06;48.97;101996.98;107091;1267;22508;-50
2023/09/11 02:28:59;;;;;;;;;;;;;;;20.07;48.15;101997.11;107081;1267;22512;-52
2023/09/11 02:31:27;;;;;;;;;;;;;;;20.08;47.76;101994.08;107010;1270;22503;-53
2023/09/11 02:33:55;;;;;;;;;;;;;;;20.08;47.56;101995.30;106875;1267;26475;-53
2023/09/11 02:36:22;;;;;;;;;;;;;;;20.09;47.46;101992.09;107113;1269;25252;-50
2023/09/11 02:38:50;;;;;;;;;;;;;;;20.09;47.23;101992.08;107041;1270;22513;-49
2023/09/11 02:41:18;;;;;;;;;;;;;;;20.09;47.06;101988.41;107017;1272;25261;-50
2023/09/11 02:43:45;;;;;;;;;;;;;;;20.09;46.58;101987.35;107068;1257;25208;-50
2023/09/11 02:46:13;;;;;;;;;;;;;;;20.09;46.53;101983.48;107108;1254;24184;-49
2023/09/11 02:48:45;;;;;;;;;;;;;;;20.08;46.72;101984.20;107136;1254;22524;-50
2023/09/11 02:51:13;;;;;;;;;;;;;;;20.08;47.08;101984.02;107062;1267;22507;-49
2023/09/11 02:53:41;;;;;;;;;;;;;;;20.07;46.99;101987.73;107068;1256;24524;-50
2023/09/11 02:56:08;;;;;;;;;;;;;;;20.06;46.22;101984.48;106984;1253;25603;-50
2023/09/11 02:58:36;;;;;;;;;;;;;;;20.04;46.24;101988.08;106882;1270;22518;-51
2023/09/11 03:01:04;;;;;;;;;;;;;;;20.03;46.14;101992.32;107149;1268;22494;-55
2023/09/11 03:03:32;;;;;;;;;;;;;;;20.04;46.30;101993.02;106972;1254;22511;-51
2023/09/11 03:06:00;;;;;;;;;;;;;;;20.03;46.52;101990.92;106955;1257;22513;-51
2023/09/11 03:08:28;;;;;;;;;;;;;;;20.02;46.03;101992.05;106920;1257;22509;-53
2023/09/11 03:11:02;;;;;;;;;;;;;;;20.00;45.40;101992.47;106915;1257;22624;-51
2023/09/11 03:13:30;;;;;;;;;;;;;;;19.99;45.61;101988.81;106932;1257;24205;-51
2023/09/11 03:16:07;;;;;;;;;;;;;;;19.98;45.45;101991.50;106702;1256;24197;-51
2023/09/11 03:18:36;;;;;;;;;;;;;;;19.95;45.90;101987.20;107039;1257;22752;-51
2023/09/11 03:21:04;;;;;;;;;;;;;;;19.94;46.38;101989.17;107063;1275;24226;-51
2023/09/11 03:23:32;;;;;;;;;;;;;;;19.93;46.54;101988.72;107110;1256;22513;-51
2023/09/11 03:26:00;;;;;;;;;;;;;;;19.91;46.85;101994.60;107114;1260;24252;-50
2023/09/11 03:28:28;;;;;;;;;;;;;;;19.90;46.62;101990.77;107087;1275;22982;-49
2023/09/11 03:30:56;;;;;;;;;;;;;;;19.89;46.75;101993.63;107041;1254;22514;-54
2023/09/11 03:33:24;;;;;;;;;;;;;;;19.89;47.25;101996.45;107076;1257;24701;-49
2023/09/11 03:35:52;;;;;;;;;;;;;;;19.89;47.33;101998.39;107054;1257;22518;-50
2023/09/11 03:38:20;;;;;;;;;;;;;;;19.87;47.47;101999.85;107118;1269;22508;-49
2023/09/11 03:40:48;;;;;;;;;;;;;;;19.87;47.55;101999.16;107110;1267;25249;-50
2023/09/11 03:43:16;;;;;;;;;;;;;;;19.86;47.61;101999.92;106872;1267;22514;-51
2023/09/11 03:45:43;;;;;;;;;;;;;;;19.85;47.96;101999.77;106755;1267;22506;-50
2023/09/11 03:48:11;;;;;;;;;;;;;;;19.84;48.38;101995.77;106870;1260;22642;-50
2023/09/11 03:50:39;;;;;;;;;;;;;;;19.83;47.90;102001.27;107112;1267;24256;-50
2023/09/11 03:53:07;;;;;;;;;;;;;;;19.82;47.64;101999.90;107098;1254;22571;-51
2023/09/11 03:55:36;;;;;;;;;;;;;;;19.82;47.55;101996.73;106786;1259;24272;-51
2023/09/11 03:58:04;;;;;;;;;;;;;;;19.82;47.55;102000.43;107003;1254;22508;-55
2023/09/11 04:00:32;;;;;;;;;;;;;;;19.84;48.15;101999.11;107111;1270;22497;-51
2023/09/11 04:03:00;;;;;;;;;;;;;;;19.85;47.78;102000.83;107029;1269;22629;-50
2023/09/11 04:05:28;;;;;;;;;;;;;;;19.85;47.89;102001.89;106792;1270;24615;-50
2023/09/11 04:07:56;;;;;;;;;;;;;;;19.86;48.12;102005.02;106787;1256;22527;-50
2023/09/11 04:10:24;;;;;;;;;;;;;;;19.87;48.21;102006.20;107072;1269;22508;-49
2023/09/11 04:16:10;;;;;;;;;;;;;;;19.93;47.71;102011.95;104176;1294;544084;-49
2023/09/11 04:18:38;;;;;;;;;;;;;;;19.92;47.83;102004.96;106093;1273;23814;-50
2023/09/11 04:21:06;;;;;;;;;;;;;;;19.93;47.82;102001.74;105986;1276;25262;-52
2023/09/11 04:23:35;;;;;;;;;;;;;;;19.96;47.84;102004.80;105945;1281;22533;-53
2023/09/11 04:26:03;;;;;;;;;;;;;;;19.97;47.87;102004.58;105961;1283;25229;-50
2023/09/11 04:28:30;;;;;;;;;;;;;;;19.99;47.99;102005.03;105967;1270;22537;-50
2023/09/11 04:30:58;;;;;;;;;;;;;;;20.01;48.14;102006.02;106127;1278;287492;-49
2023/09/11 04:33:27;;;;;;;;;;;;;;;20.03;48.16;101998.17;106008;1280;22521;-55
2023/09/11 04:35:55;;;;;;;;;;;;;;;20.04;47.21;101998.10;106277;1279;22520;-51
2023/09/11 04:38:24;;;;;;;;;;;;;;;20.05;46.23;101999.13;106319;1267;22533;-54
2023/09/11 04:40:58;;;;;;;;;;;;;;;20.06;45.43;102001.73;106307;1263;22635;-51
2023/09/11 04:43:28;;;;;;;;;;;;;;;20.05;45.12;101999.33;106318;1280;22789;-50
2023/09/11 04:45:56;;;;;;;;;;;;;;;20.05;44.92;101997.20;106203;1270;22543;-50
2023/09/11 04:48:24;;;;;;;;;;;;;;;20.05;44.67;101997.00;106235;1274;22507;-49
2023/09/11 04:50:52;;;;;;;;;;;;;;;20.05;44.64;101997.17;106638;1261;24403;-50
2023/09/11 04:53:20;;;;;;;;;;;;;;;20.06;44.30;101995.23;106561;1276;24751;-49
2023/09/11 04:55:48;;;;;;;;;;;;;;;20.06;43.93;101992.39;106624;1261;24369;-49
2023/09/11 04:58:16;;;;;;;;;;;;;;;20.08;44.02;101997.08;106577;1264;24356;-49
2023/09/11 05:00:44;;;;;;;;;;;;;;;20.08;43.99;101993.73;106369;1267;23008;-49
2023/09/11 05:03:11;;;;;;;;;;;;;;;20.07;44.22;101994.09;106263;1267;23883;-49
2023/09/11 05:05:41;;;;;;;;;;;;;;;20.08;44.72;101991.59;106477;1272;24258;-49
2023/09/11 05:08:10;;;;;;;;;;;;;;;20.10;46.15;101991.89;106657;1261;22517;-50
2023/09/11 05:10:44;;;;;;;;;;;;;;;20.11;46.97;101989.89;106637;1273;22519;-49
2023/09/11 05:13:13;;;;;;;;;;;;;;;20.12;47.70;101995.31;106641;1260;22515;-50
2023/09/11 05:15:40;;;;;;;;;;;;;;;20.12;47.44;101990.90;106448;1261;22513;-52
2023/09/11 05:18:08;;;;;;;;;;;;;;;20.14;47.66;101989.75;106455;1265;22631;-50
2023/09/11 05:20:36;;;;;;;;;;;;;;;20.17;46.90;101986.64;106364;1261;22523;-50
2023/09/11 05:23:05;;;;;;;;;;;;;;;20.19;44.55;101984.81;105031;1261;1015132;-49
2023/09/11 05:25:34;;;;;;;;;;;;;;;20.20;43.40;101987.59;105594;1264;1002851;-52
2023/09/11 05:28:01;;;;;;;;;;;;;;;20.19;43.35;101985.88;106724;1260;22515;-51
2023/09/11 05:30:29;;;;;;;;;;;;;;;20.07;43.13;101986.36;106726;1272;22519;-53
2023/09/11 05:32:57;;;;;;;;;;;;;;;20.06;42.87;101985.16;106670;1273;23157;-51
2023/09/11 05:35:25;;;;;;;;;;;;;;;20.17;42.78;101984.37;106628;1273;22515;-50
2023/09/11 05:37:52;;;;;;;;;;;;;;;20.30;42.81;101985.77;106342;1264;25281;-51
2023/09/11 05:40:20;;;;;;;;;;;;;;;20.33;42.75;101983.90;106672;1272;22527;-51
2023/09/11 05:42:47;;;;;;;;;;;;;;;20.35;42.56;101985.88;106635;1273;22502;-52
2023/09/11 05:45:15;;;;;;;;;;;;;;;20.38;42.06;101988.92;106665;1275;22531;-50
2023/09/11 05:47:43;;;;;;;;;;;;;;;20.41;41.63;101983.55;106564;1274;22518;-50
2023/09/11 05:50:11;;;;;;;;;;;;;;;20.44;41.65;101984.83;106651;1271;22515;-50
2023/09/11 05:52:38;;;;;;;;;;;;;;;20.48;41.40;101988.16;106711;1262;22513;-55
2023/09/11 05:55:07;;;;;;;;;;;;;;;20.51;41.00;101990.84;106598;1260;24374;-50
2023/09/11 05:57:34;;;;;;;;;;;;;;;20.54;40.91;101989.98;106460;1272;25290;-52
2023/09/11 06:00:09;;;;;;;;;;;;;;;20.60;40.78;101997.32;105306;1272;1002967;-52
2023/09/11 06:02:39;;;;;;;;;;;;;;;20.68;41.41;101996.80;106643;1261;24364;-50
2023/09/11 06:05:08;;;;;;;;;;;;;;;20.77;40.99;101999.52;106386;1272;25355;-50
2023/09/11 06:07:35;;;;;;;;;;;;;;;20.87;41.03;101999.10;106453;1279;25329;-52
2023/09/11 06:10:04;;;;;;;;;;;;;;;20.95;40.89;101995.91;106671;1258;24373;-52
2023/09/11 06:12:31;;;;;;;;;;;;;;;21.02;40.70;101989.64;106709;1262;23894;-52
2023/09/11 06:14:59;;;;;;;;;;;;;;;21.07;40.85;101990.99;106580;1264;22511;-53
2023/09/11 06:17:27;;;;;;;;;;;;;;;21.12;40.81;101993.44;106360;1267;23848;-52
2023/09/11 06:20:12;;;;;;;;;;;;;;;21.14;40.25;101994.02;106705;1274;22520;-50
2023/09/11 06:22:40;;;;;;;;;;;;;;;21.19;40.25;101994.50;106734;1256;22510;-52
2023/09/11 06:25:08;;;;;;;;;;;;;;;21.25;40.74;101997.21;106722;1263;22635;-49
2023/09/11 06:27:35;;;;;;;;;;;;;;;21.31;40.83;101995.17;106771;1273;22507;-50
2023/09/11 06:30:07;;;;;;;;;;;;;;;21.38;40.37;101996.79;106488;1279;22510;-52
2023/09/11 06:32:35;;;;;;;;;;;;;;;21.44;40.27;101997.75;106442;1272;22511;-52
2023/09/11 06:35:06;;;;;;;;;;;;;;;21.49;41.07;101996.63;106470;1272;22518;-52
2023/09/11 06:37:33;;;;;;;;;;;;;;;21.52;41.40;101998.02;106629;1272;22537;-53
2023/09/11 06:40:01;;;;;;;;;;;;;;;21.57;42.03;101996.77;106648;1257;25309;-50
2023/09/11 06:42:29;;;;;;;;;;;;;;;21.62;42.50;102002.70;106660;1273;22503;-50
2023/09/11 06:44:57;;;;;;;;;;;;;;;21.65;42.61;102005.16;106641;1272;22561;-54
2023/09/11 06:47:24;;;;;;;;;;;;;;;21.68;42.27;102004.86;106657;1264;23851;-50
2023/09/11 06:49:52;;;;;;;;;;;;;;;21.70;42.41;102005.83;106609;1264;22529;-50
2023/09/11 06:52:20;;;;;;;;;;;;;;;21.74;42.48;102007.05;106988;1257;24858;-55
2023/09/11 06:54:48;;;;;;;;;;;;;;;21.77;42.21;102006.38;106426;1264;22503;-52
2023/09/11 06:57:15;;;;;;;;;;;;;;;21.80;42.23;102008.34;106702;1269;22549;-50
2023/09/11 06:59:43;;;;;;;;;;;;;;;21.86;42.27;102009.66;106752;1255;22503;-49
2023/09/11 07:02:11;;;;;;;;;;;;;;;21.92;42.33;102010.96;106902;1257;22504;-50
2023/09/11 07:04:38;;;;;;;;;;;;;;;21.98;41.99;102009.95;106865;1257;22516;-54
2023/09/11 07:07:06;;;;;;;;;;;;;;;22.09;42.00;102014.17;106924;1254;22504;-51
2023/09/11 07:09:34;;;;;;;;;;;;;;;22.24;41.90;102014.81;106783;1257;22521;-50
2023/09/11 07:12:02;;;;;;;;;;;;;;;22.44;41.53;102016.45;106931;1256;22500;-52
2023/09/11 07:14:29;;;;;;;;;;;;;;;22.64;40.78;102016.14;106751;1255;25330;-50
2023/09/11 07:17:00;;;;;;;;;;;;;;;22.85;40.80;102017.54;106790;1259;25314;-53
2023/09/11 07:19:28;;;;;;;;;;;;;;;23.06;40.34;102016.92;107042;1269;22507;-49
2023/09/11 07:21:56;;;;;;;;;;;;;;;23.21;39.66;102018.39;106036;1256;1003578;-50
2023/09/11 07:24:23;;;;;;;;;;;;;;;23.31;39.46;102016.24;106789;1272;22520;-49
2023/09/11 07:26:51;;;;;;;;;;;;;;;23.41;39.07;102017.32;107053;1257;22559;-50
2023/09/11 07:29:19;;;;;;;;;;;;;;;23.47;39.46;102012.18;106665;1258;22507;-52
2023/09/11 07:31:46;;;;;;;;;;;;;;;23.51;39.49;102012.36;106751;1258;22504;-51
2023/09/11 07:34:15;;;;;;;;;;;;;;;23.51;39.43;102012.15;106778;1258;23878;-56
2023/09/11 07:36:42;;;;;;;;;;;;;;;23.54;39.46;102012.31;106834;1272;24250;-52
2023/09/11 07:39:10;;;;;;;;;;;;;;;23.57;39.48;102015.73;106829;1258;22788;-51
2023/09/11 07:41:37;;;;;;;;;;;;;;;23.56;39.24;102009.38;106823;1256;22529;-53
2023/09/11 07:44:05;;;;;;;;;;;;;;;23.55;39.63;102010.70;106083;1258;1002877;-50
2023/09/11 07:46:33;;;;;;;;;;;;;;;23.54;39.43;102012.00;106867;1269;22514;-50
2023/09/11 07:49:01;;;;;;;;;;;;;;;23.54;39.56;102011.83;106597;1263;22529;-52
2023/09/11 07:51:29;;;;;;;;;;;;;;;23.52;39.75;102015.80;106768;1269;22507;-50
2023/09/11 07:53:56;;;;;;;;;;;;;;;23.50;39.77;102016.98;106738;1259;22511;-51
2023/09/11 07:56:25;;;;;;;;;;;;;;;23.49;40.16;102016.15;106894;1257;22507;-52
2023/09/11 07:58:53;;;;;;;;;;;;;;;23.49;40.39;102018.28;106785;1257;22524;-50
2023/09/11 08:01:25;;;;;;;;;;;;;;;23.51;40.43;102017.84;106836;1269;22539;-51
2023/09/11 08:03:54;;;;;;;;;;;;;;;23.52;40.48;102017.20;106957;1269;25210;-51
2023/09/11 08:06:25;;;;;;;;;;;;;;;23.53;40.37;102014.35;106858;1257;22508;-51
2023/09/11 08:08:53;;;;;;;;;;;;;;;23.53;40.72;102012.36;106784;1254;22531;-49
2023/09/11 08:11:21;;;;;;;;;;;;;;;23.55;40.95;102005.56;106815;1256;22518;-52
2023/09/11 08:13:50;;;;;;;;;;;;;;;23.57;40.95;102006.15;106710;1259;25253;-50
2023/09/11 08:16:18;;;;;;;;;;;;;;;23.59;40.63;102007.64;106977;1275;22602;-51
2023/09/11 08:18:46;;;;;;;;;;;;;;;23.61;40.10;102003.58;106152;1256;1003674;-55
2023/09/11 08:21:14;;;;;;;;;;;;;;;23.65;39.95;102004.77;107024;1255;22504;-49
2023/09/11 08:23:42;;;;;;;;;;;;;;;23.71;40.16;102005.00;107141;1258;22577;-53
2023/09/11 08:26:10;;;;;;;;;;;;;;;23.74;39.57;102001.80;106929;1253;25697;-50
2023/09/11 08:28:38;;;;;;;;;;;;;;;23.79;39.77;102002.05;106723;1269;25334;-51
2023/09/11 08:31:06;;;;;;;;;;;;;;;23.84;40.14;102000.17;106702;1257;22578;-51
2023/09/11 08:33:34;;;;;;;;;;;;;;;23.88;39.71;101994.77;106844;1268;22526;-50
2023/09/11 08:36:21;;;;;;;;;;;;;;;23.93;39.66;101994.84;106671;1261;22519;-50
2023/09/11 08:38:49;;;;;;;;;;;;;;;23.98;39.68;101989.24;106900;1253;22792;-51
2023/09/11 08:47:03;;;;;;;;;;;;;;;24.14;39.65;101988.30;103611;1292;544441;-50
2023/09/11 08:49:32;;;;;;;;;;;;;;;24.17;39.43;101987.62;105877;1282;24275;-50
2023/09/11 08:52:02;;;;;;;;;;;;;;;24.21;39.45;101986.30;105927;1282;25332;-50
2023/09/11 08:54:32;;;;;;;;;;;;;;;24.24;39.58;101984.83;105690;1274;22623;-50
2023/09/11 08:57:00;;;;;;;;;;;;;;;24.30;39.89;101985.97;106029;1272;25291;-50
2023/09/11 08:59:30;;;;;;;;;;;;;;;24.34;39.80;101981.80;105915;1285;22520;-49
2023/09/11 09:01:57;;;;;;;;;;;;;;;24.40;40.01;101979.52;105064;1282;1003264;-51
2023/09/11 09:04:25;;;;;;;;;;;;;;;24.46;39.82;101979.45;106144;1270;23002;-54
2023/09/11 09:06:53;;;;;;;;;;;;;;;24.53;39.76;101979.23;105942;1280;24195;-51
2023/09/11 09:09:21;;;;;;;;;;;;;;;24.60;39.36;101978.05;106170;1269;24244;-51
2023/09/11 09:11:49;;;;;;;;;;;;;;;24.68;39.08;101976.33;106093;1276;22533;-53
2023/09/11 09:14:18;;;;;;;;;;;;;;;24.75;38.73;101977.34;106243;1270;26487;-50
2023/09/11 09:16:45;;;;;;;;;;;;;;;24.83;38.46;101967.09;105950;1270;22518;-49
2023/09/11 09:19:13;;;;;;;;;;;;;;;24.92;38.02;101968.86;106527;1269;22519;-51
2023/09/11 09:22:00;;;;;;;;;;;;;;;24.99;37.39;101966.08;105898;1272;24221;-50
2023/09/11 09:24:28;;;;;;;;;;;;;;;25.06;37.35;101962.95;106217;1279;24152;-53
2023/09/11 09:26:59;;;;;;;;;;;;;;;25.14;37.17;101963.54;106731;1270;22585;-50
2023/09/11 09:29:32;;;;;;;;;;;;;;;25.25;37.18;101961.42;106892;1265;22506;-53
2023/09/11 09:32:00;;;;;;;;;;;;;;;25.37;37.61;101956.52;106808;1276;25340;-49
2023/09/11 09:34:28;;;;;;;;;;;;;;;25.45;37.54;101955.16;106928;1266;25345;-49
2023/09/11 09:36:56;;;;;;;;;;;;;;;25.57;37.23;101956.26;106855;1266;22503;-52
2023/09/11 09:39:28;;;;;;;;;;;;;;;25.68;36.89;101955.89;106903;1269;22507;-49
2023/09/11 09:41:56;;;;;;;;;;;;;;;25.78;36.10;101951.52;106452;1275;22515;-54
2023/09/11 09:44:28;;;;;;;;;;;;;;;25.87;35.95;101951.09;106900;1275;25303;-49
2023/09/11 09:46:56;;;;;;;;;;;;;;;25.96;36.03;101953.34;106682;1261;22539;-49
2023/09/11 09:49:23;;;;;;;;;;;;;;;26.03;35.48;101955.02;106884;1270;25220;-49
2023/09/11 09:51:52;;;;;;;;;;;;;;;26.08;35.00;101951.13;106867;1270;24166;-49
2023/09/11 09:54:19;;;;;;;;;;;;;;;26.10;35.01;101944.77;106864;1261;22508;-49
2023/09/11 09:56:47;;;;;;;;;;;;;;;26.14;34.81;101944.48;106838;1272;24199;-51
2023/09/11 09:59:22;;;;;;;;;;;;;;;26.20;34.47;101940.00;105393;1254;1003674;-49
2023/09/11 10:01:50;;;;;;;;;;;;;;;26.27;34.58;101941.83;106816;1254;22507;-50
2023/09/11 10:04:20;;;;;;;;;;;;;;;26.33;34.71;101939.98;106850;1275;25322;-50
2023/09/11 10:06:52;;;;;;;;;;;;;;;26.38;34.69;101934.47;106787;1260;22511;-48
2023/09/11 10:09:20;;;;;;;;;;;;;;;26.44;34.68;101931.73;106890;1270;25013;-49
2023/09/11 10:11:48;;;;;;;;;;;;;;;26.49;34.76;101926.94;106710;1272;25330;-50
2023/09/11 10:14:16;;;;;;;;;;;;;;;26.54;34.50;101925.85;106641;1270;22518;-50
2023/09/11 10:16:45;;;;;;;;;;;;;;;26.57;34.13;101923.88;106826;1261;22511;-49
2023/09/11 10:19:13;;;;;;;;;;;;;;;26.60;34.48;101922.42;106858;1270;25321;-50
2023/09/11 10:21:40;;;;;;;;;;;;;;;26.63;34.51;101923.81;106688;1270;22514;-49
2023/09/11 10:24:10;;;;;;;;;;;;;;;26.66;34.40;101923.06;106859;1270;25327;-49
2023/09/11 10:26:55;;;;;;;;;;;;;;;26.70;34.46;101919.19;106845;1268;25316;-50
2023/09/11 10:29:26;;;;;;;;;;;;;;;26.73;34.44;101918.52;106862;1270;25354;-47
2023/09/11 10:31:58;;;;;;;;;;;;;;;26.74;34.25;101918.05;106741;1275;22530;-56
2023/09/11 10:34:26;;;;;;;;;;;;;;;26.76;33.72;101919.84;106846;1270;22648;-50
2023/09/11 10:36:55;;;;;;;;;;;;;;;26.77;33.97;101920.65;106584;1273;24212;-49
2023/09/11 10:39:22;;;;;;;;;;;;;;;26.79;34.05;101919.08;106561;1273;25211;-52
2023/09/11 10:41:50;;;;;;;;;;;;;;;26.81;33.91;101917.16;106824;1268;23117;-50
2023/09/11 10:44:18;;;;;;;;;;;;;;;26.86;33.88;101917.39;106865;1276;22544;-50
2023/09/11 10:46:50;;;;;;;;;;;;;;;26.85;33.85;101916.02;106877;1261;25314;-50
2023/09/11 10:49:19;;;;;;;;;;;;;;;26.86;34.00;101909.70;106755;1271;22522;-52
2023/09/11 10:51:47;;;;;;;;;;;;;;;26.89;33.71;101913.59;106821;1257;22506;-52
2023/09/11 10:54:15;;;;;;;;;;;;;;;26.92;33.50;101908.73;106819;1265;22507;-54
2023/09/11 10:56:44;;;;;;;;;;;;;;;26.94;33.75;101904.63;106738;1268;22625;-49
2023/09/11 10:59:13;;;;;;;;;;;;;;;26.95;33.39;101901.17;106790;1270;25315;-50
2023/09/11 11:01:41;;;;;;;;;;;;;;;26.97;33.33;101898.71;106841;1261;22523;-50
2023/09/11 11:04:09;;;;;;;;;;;;;;;26.99;33.67;101895.73;106391;1276;22508;-50
2023/09/11 11:06:36;;;;;;;;;;;;;;;27.00;33.67;101892.09;106023;1270;1004554;-50
2023/09/11 11:09:04;;;;;;;;;;;;;;;27.00;33.80;101890.18;106796;1261;25235;-49
2023/09/11 11:11:39;;;;;;;;;;;;;;;27.00;33.07;101886.56;106761;1270;22517;-52
2023/09/11 11:14:11;;;;;;;;;;;;;;;27.02;33.29;101883.58;106700;1273;25654;-50
2023/09/11 11:16:39;;;;;;;;;;;;;;;27.04;33.51;101880.95;106757;1259;25306;-49
2023/09/11 11:19:07;;;;;;;;;;;;;;;27.04;33.21;101879.34;106858;1270;25428;-50
2023/09/11 11:21:38;;;;;;;;;;;;;;;27.05;33.20;101879.11;106813;1270;25256;-50
2023/09/11 11:24:08;;;;;;;;;;;;;;;27.06;33.21;101874.02;106857;1270;25998;-49
2023/09/11 11:26:40;;;;;;;;;;;;;;;27.08;32.89;101871.56;106905;1269;24178;-50
2023/09/11 11:29:07;;;;;;;;;;;;;;;27.11;32.94;101869.39;106827;1269;25312;-51
2023/09/11 11:31:35;;;;;;;;;;;;;;;27.12;32.62;101865.23;106751;1275;22506;-49
2023/09/11 11:34:04;;;;;;;;;;;;;;;27.13;31.97;101863.35;106866;1270;25347;-50
2023/09/11 11:36:32;;;;;;;;;;;;;;;27.15;31.89;101863.21;106795;1270;25331;-50
2023/09/11 11:38:59;;;;;;;;;;;;;;;27.16;32.07;101859.90;106814;1260;22510;-49
2023/09/11 11:41:27;;;;;;;;;;;;;;;27.16;31.83;101858.83;106883;1270;23883;-50
2023/09/11 11:43:55;;;;;;;;;;;;;;;27.17;31.60;101853.45;106861;1269;22509;-49
2023/09/11 11:46:28;;;;;;;;;;;;;;;27.16;31.55;101850.11;106806;1264;22507;-51
2023/09/11 11:48:56;;;;;;;;;;;;;;;27.15;31.58;101852.16;106844;1261;22527;-52
2023/09/11 11:51:30;;;;;;;;;;;;;;;27.15;31.77;101852.18;106831;1269;22513;-49
2023/09/11 11:53:58;;;;;;;;;;;;;;;27.14;31.72;101854.41;106788;1270;25235;-50
2023/09/11 11:56:26;;;;;;;;;;;;;;;27.10;31.54;101857.02;106871;1269;25353;-50
2023/09/11 11:58:55;;;;;;;;;;;;;;;27.10;31.61;101855.54;106821;1256;24277;-52
2023/09/11 12:01:23;;;;;;;;;;;;;;;27.11;31.40;101852.80;106868;1270;22517;-49
2023/09/11 12:03:50;;;;;;;;;;;;;;;27.12;30.69;101853.06;106925;1275;24259;-49
2023/09/11 12:06:19;;;;;;;;;;;;;;;27.14;30.33;101852.41;106814;1270;22516;-51
2023/09/11 12:08:47;;;;;;;;;;;;;;;27.14;30.12;101849.90;106846;1270;23883;-50
2023/09/11 12:11:15;;;;;;;;;;;;;;;27.16;30.20;101848.38;106804;1270;24255;-48
2023/09/11 12:13:43;;;;;;;;;;;;;;;27.16;29.94;101844.59;106896;1272;25322;-52
2023/09/11 12:16:16;;;;;;;;;;;;;;;27.15;29.92;101841.65;106853;1270;25410;-50
2023/09/11 12:18:46;;;;;;;;;;;;;;;27.22;29.43;101843.63;106746;1268;25305;-49
2023/09/11 12:21:13;;;;;;;;;;;;;;;27.23;29.61;101842.64;106794;1256;22511;-50
2023/09/11 12:23:41;;;;;;;;;;;;;;;27.24;29.74;101842.76;106884;1270;22515;-50
2023/09/11 12:26:09;;;;;;;;;;;;;;;27.23;30.25;101838.58;106811;1260;22517;-49
2023/09/11 12:28:36;;;;;;;;;;;;;;;27.22;29.71;101833.66;106795;1266;25228;-50
2023/09/11 12:31:04;;;;;;;;;;;;;;;27.23;30.25;101833.26;106771;1260;24340;-49
2023/09/11 12:33:34;;;;;;;;;;;;;;;27.25;30.64;101832.02;106783;1270;22508;-51
2023/09/11 12:36:04;;;;;;;;;;;;;;;27.28;30.23;101832.15;106848;1259;22514;-50
2023/09/11 12:38:32;;;;;;;;;;;;;;;27.30;30.72;101828.39;106877;1272;25333;-49
2023/09/11 12:40:59;;;;;;;;;;;;;;;27.33;31.46;101828.55;106906;1259;25211;-49